sensor_id;sensor_type;location;lat;lon;timestamp;temperature;humidity
10451;DHT22;5273;51.290;6.918;2023-03-29T00:04:45;5.50;99.90
10451;DHT22;5273;51.290;6.918;2023-03-29T00:22:01;5.50;99.90
10451;DHT22;5273;51.290;6.918;2023-03-29T00:39:17;5.50;99.90
10451;DHT22;5273;51.290;6.918;2023-03-29T00:47:16;5.50;99.90
10451;DHT22;5273;51.290;6.918;2023-03-29T00:49:44;5.60;99.90
10451;DHT22;5273;51.290;6.918;2023-03-29T00:52:12;5.60;99.90
10451;DHT22;5273;51.290;6.918;2023-03-29T00:54:43;5.60;99.90
10451;DHT22;5273;51.290;6.918;2023-03-29T00:57:12;5.60;99.90
10451;DHT22;5273;51.290;6.918;2023-03-29T00:59:40;5.60;99.90
10451;DHT22;5273;51.290;6.918;2023-03-29T01:04:38;5.60;99.90
10451;DHT22;5273;51.290;6.918;2023-03-29T01:07:09;5.60;99.90
10451;DHT22;5273;51.290;6.918;2023-03-29T01:09:42;5.60;99.90
10451;DHT22;5273;51.290;6.918;2023-03-29T01:12:14;5.60;99.90
10451;DHT22;5273;51.290;6.918;2023-03-29T01:14:46;5.60;99.90
10451;DHT22;5273;51.290;6.918;2023-03-29T01:19:44;5.60;99.90
10451;DHT22;5273;51.290;6.918;2023-03-29T01:22:19;5.60;99.90
10451;DHT22;5273;51.290;6.918;2023-03-29T01:25:01;5.70;99.90
10451;DHT22;5273;51.290;6.918;2023-03-29T01:27:46;5.70;99.90
10451;DHT22;5273;51.290;6.918;2023-03-29T01:30:18;7.20;99.90
10451;DHT22;5273;51.290;6.918;2023-03-29T01:32:49;5.70;99.90
10451;DHT22;5273;51.290;6.918;2023-03-29T01:35:21;5.60;99.90
10451;DHT22;5273;51.290;6.918;2023-03-29T01:37:56;5.70;99.90
10451;DHT22;5273;51.290;6.918;2023-03-29T01:42:58;5.70;99.90
10451;DHT22;5273;51.290;6.918;2023-03-29T01:45:32;5.70;99.90
10451;DHT22;5273;51.290;6.918;2023-03-29T01:48:06;5.70;99.90
10451;DHT22;5273;51.290;6.918;2023-03-29T01:50:38;5.70;99.90
10451;DHT22;5273;51.290;6.918;2023-03-29T01:53:12;5.70;99.90
10451;DHT22;5273;51.290;6.918;2023-03-29T01:55:44;5.70;99.90
10451;DHT22;5273;51.290;6.918;2023-03-29T01:58:15;5.70;99.90
10451;DHT22;5273;51.290;6.918;2023-03-29T02:03:10;5.80;99.90
10451;DHT22;5273;51.290;6.918;2023-03-29T02:05:39;5.80;99.90
10451;DHT22;5273;51.290;6.918;2023-03-29T02:08:11;5.80;99.90
10451;DHT22;5273;51.290;6.918;2023-03-29T02:15:34;5.80;99.90
10451;DHT22;5273;51.290;6.918;2023-03-29T02:20:32;5.80;99.90
10451;DHT22;5273;51.290;6.918;2023-03-29T02:23:04;5.80;99.90
10451;DHT22;5273;51.290;6.918;2023-03-29T02:25:34;5.90;99.90
10451;DHT22;5273;51.290;6.918;2023-03-29T02:28:02;5.90;99.90
10451;DHT22;5273;51.290;6.918;2023-03-29T02:30:31;5.80;99.90
10451;DHT22;5273;51.290;6.918;2023-03-29T02:33:06;5.90;99.90
10451;DHT22;5273;51.290;6.918;2023-03-29T02:35:39;5.90;99.90
10451;DHT22;5273;51.290;6.918;2023-03-29T02:38:11;5.90;99.90
10451;DHT22;5273;51.290;6.918;2023-03-29T02:40:40;5.90;99.90
10451;DHT22;5273;51.290;6.918;2023-03-29T02:43:08;5.90;99.90
10451;DHT22;5273;51.290;6.918;2023-03-29T02:48:07;6.00;99.90
10451;DHT22;5273;51.290;6.918;2023-03-29T02:50:37;6.00;99.90
10451;DHT22;5273;51.290;6.918;2023-03-29T02:53:08;6.00;99.90
10451;DHT22;5273;51.290;6.918;2023-03-29T03:00:34;6.00;99.90
10451;DHT22;5273;51.290;6.918;2023-03-29T03:05:30;6.00;99.90
10451;DHT22;5273;51.290;6.918;2023-03-29T03:22:44;6.00;99.90
10451;DHT22;5273;51.290;6.918;2023-03-29T03:40:00;6.10;99.90
10451;DHT22;5273;51.290;6.918;2023-03-29T03:47:23;6.20;99.90
10451;DHT22;5273;51.290;6.918;2023-03-29T03:52:17;6.30;99.90
10451;DHT22;5273;51.290;6.918;2023-03-29T03:57:13;6.30;99.90
10451;DHT22;5273;51.290;6.918;2023-03-29T04:09:31;6.40;99.90
10451;DHT22;5273;51.290;6.918;2023-03-29T04:11:59;6.40;99.90
10451;DHT22;5273;51.290;6.918;2023-03-29T04:14:28;6.40;99.90
10451;DHT22;5273;51.290;6.918;2023-03-29T04:26:46;6.50;99.90
10451;DHT22;5273;51.290;6.918;2023-03-29T04:31:41;6.50;99.90
10451;DHT22;5273;51.290;6.918;2023-03-29T04:48:56;6.30;99.90
10451;DHT22;5273;51.290;6.918;2023-03-29T05:06:09;6.10;99.90
10451;DHT22;5273;51.290;6.918;2023-03-29T05:08:37;6.10;99.90
10451;DHT22;5273;51.290;6.918;2023-03-29T05:11:05;6.10;99.90
10451;DHT22;5273;51.290;6.918;2023-03-29T05:23:22;6.00;99.90
10451;DHT22;5273;51.290;6.918;2023-03-29T05:40:34;6.10;99.90
10451;DHT22;5273;51.290;6.918;2023-03-29T05:57:47;6.20;99.90
10451;DHT22;5273;51.290;6.918;2023-03-29T06:00:15;6.30;99.90
10451;DHT22;5273;51.290;6.918;2023-03-29T06:10:10;4.80;99.90
10451;DHT22;5273;51.290;6.918;2023-03-29T06:15:06;6.40;99.90
10451;DHT22;5273;51.290;6.918;2023-03-29T06:32:25;6.80;99.90
10451;DHT22;5273;51.290;6.918;2023-03-29T06:34:53;6.80;99.90
10451;DHT22;5273;51.290;6.918;2023-03-29T06:42:17;6.80;99.90
10451;DHT22;5273;51.290;6.918;2023-03-29T06:49:40;6.90;99.90
10451;DHT22;5273;51.290;6.918;2023-03-29T07:06:55;7.20;99.90
10451;DHT22;5273;51.290;6.918;2023-03-29T07:09:27;7.20;99.90
10451;DHT22;5273;51.290;6.918;2023-03-29T07:24:17;7.40;99.90
10451;DHT22;5273;51.290;6.918;2023-03-29T07:31:40;7.40;99.90
10451;DHT22;5273;51.290;6.918;2023-03-29T07:39:05;7.60;99.90
10451;DHT22;5273;51.290;6.918;2023-03-29T07:41:34;7.60;99.90
10451;DHT22;5273;51.290;6.918;2023-03-29T07:46:34;7.60;99.90
10451;DHT22;5273;51.290;6.918;2023-03-29T07:58:52;7.90;99.90
10451;DHT22;5273;51.290;6.918;2023-03-29T08:16:05;8.00;99.90
10451;DHT22;5273;51.290;6.918;2023-03-29T08:33:17;8.20;99.90
10451;DHT22;5273;51.290;6.918;2023-03-29T08:43:23;8.40;99.90
10451;DHT22;5273;51.290;6.918;2023-03-29T08:46:00;8.50;99.90
10451;DHT22;5273;51.290;6.918;2023-03-29T08:48:33;8.50;99.90
10451;DHT22;5273;51.290;6.918;2023-03-29T08:51:04;8.60;99.90
10451;DHT22;5273;51.290;6.918;2023-03-29T08:53:34;8.60;99.90
10451;DHT22;5273;51.290;6.918;2023-03-29T08:56:07;8.60;99.90
10451;DHT22;5273;51.290;6.918;2023-03-29T09:01:06;8.70;99.90
10451;DHT22;5273;51.290;6.918;2023-03-29T09:03:40;8.70;99.90
10451;DHT22;5273;51.290;6.918;2023-03-29T09:06:11;8.80;99.90
10451;DHT22;5273;51.290;6.918;2023-03-29T09:08:40;8.80;99.90
10451;DHT22;5273;51.290;6.918;2023-03-29T09:11:20;8.80;99.90
10451;DHT22;5273;51.290;6.918;2023-03-29T09:13:56;8.90;99.90
10451;DHT22;5273;51.290;6.918;2023-03-29T09:16:31;8.90;99.90
10451;DHT22;5273;51.290;6.918;2023-03-29T09:19:05;8.90;99.90
10451;DHT22;5273;51.290;6.918;2023-03-29T09:21:40;9.00;99.90
10451;DHT22;5273;51.290;6.918;2023-03-29T09:24:30;9.00;99.90
10451;DHT22;5273;51.290;6.918;2023-03-29T09:27:02;9.40;99.90
10451;DHT22;5273;51.290;6.918;2023-03-29T09:29:51;9.20;99.90
10451;DHT22;5273;51.290;6.918;2023-03-29T09:32:20;9.20;99.90
10451;DHT22;5273;51.290;6.918;2023-03-29T09:34:53;9.20;99.90
10451;DHT22;5273;51.290;6.918;2023-03-29T09:37:29;9.70;99.90
10451;DHT22;5273;51.290;6.918;2023-03-29T09:39:57;9.70;99.90
10451;DHT22;5273;51.290;6.918;2023-03-29T09:42:26;9.60;99.90
10451;DHT22;5273;51.290;6.918;2023-03-29T09:44:58;8.60;99.90
10451;DHT22;5273;51.290;6.918;2023-03-29T09:47:34;9.90;99.90
10451;DHT22;5273;51.290;6.918;2023-03-29T09:50:06;10.00;99.90
10451;DHT22;5273;51.290;6.918;2023-03-29T09:52:35;10.00;99.90
10451;DHT22;5273;51.290;6.918;2023-03-29T09:55:03;10.60;99.90
10451;DHT22;5273;51.290;6.918;2023-03-29T09:57:32;10.50;99.90
10451;DHT22;5273;51.290;6.918;2023-03-29T09:59:59;10.80;99.90
10451;DHT22;5273;51.290;6.918;2023-03-29T10:02:30;11.00;99.90
10451;DHT22;5273;51.290;6.918;2023-03-29T10:04:57;10.90;99.90
10451;DHT22;5273;51.290;6.918;2023-03-29T10:07:35;11.00;99.90
10451;DHT22;5273;51.290;6.918;2023-03-29T10:10:07;11.00;99.90
10451;DHT22;5273;51.290;6.918;2023-03-29T10:12:35;10.90;99.90
10451;DHT22;5273;51.290;6.918;2023-03-29T10:15:03;11.00;99.90
10451;DHT22;5273;51.290;6.918;2023-03-29T10:17:38;10.90;99.90
10451;DHT22;5273;51.290;6.918;2023-03-29T10:20:09;9.80;99.90
10451;DHT22;5273;51.290;6.918;2023-03-29T10:22:46;11.10;99.90
10451;DHT22;5273;51.290;6.918;2023-03-29T10:25:15;11.20;99.90
10451;DHT22;5273;51.290;6.918;2023-03-29T10:27:44;11.70;99.90
10451;DHT22;5273;51.290;6.918;2023-03-29T10:30:19;11.40;99.90
10451;DHT22;5273;51.290;6.918;2023-03-29T10:32:53;11.50;99.90
10451;DHT22;5273;51.290;6.918;2023-03-29T10:35:24;11.50;99.90
10451;DHT22;5273;51.290;6.918;2023-03-29T10:37:56;11.60;99.90
10451;DHT22;5273;51.290;6.918;2023-03-29T10:40:27;11.70;99.90
10451;DHT22;5273;51.290;6.918;2023-03-29T10:42:58;11.60;99.90
10451;DHT22;5273;51.290;6.918;2023-03-29T10:45:27;11.80;99.90
10451;DHT22;5273;51.290;6.918;2023-03-29T10:47:55;12.10;99.60
10451;DHT22;5273;51.290;6.918;2023-03-29T10:50:23;12.40;99.60
10451;DHT22;5273;51.290;6.918;2023-03-29T10:52:51;12.70;99.50
10451;DHT22;5273;51.290;6.918;2023-03-29T10:55:20;12.90;98.80
10451;DHT22;5273;51.290;6.918;2023-03-29T10:57:57;13.20;98.10
10451;DHT22;5273;51.290;6.918;2023-03-29T11:00:32;13.40;99.70
10451;DHT22;5273;51.290;6.918;2023-03-29T11:03:18;13.60;97.30
10451;DHT22;5273;51.290;6.918;2023-03-29T11:05:54;13.80;97.00
10451;DHT22;5273;51.290;6.918;2023-03-29T11:08:32;14.00;95.80
10451;DHT22;5273;51.290;6.918;2023-03-29T11:11:28;14.10;96.40
10451;DHT22;5273;51.290;6.918;2023-03-29T11:14:00;14.30;96.60
10451;DHT22;5273;51.290;6.918;2023-03-29T11:16:34;14.70;96.40
10451;DHT22;5273;51.290;6.918;2023-03-29T11:19:19;14.90;94.90
10451;DHT22;5273;51.290;6.918;2023-03-29T11:21:53;15.50;99.90
10451;DHT22;5273;51.290;6.918;2023-03-29T11:24:33;15.10;95.20
10451;DHT22;5273;51.290;6.918;2023-03-29T11:27:14;15.20;93.60
10451;DHT22;5273;51.290;6.918;2023-03-29T11:29:53;15.40;93.20
10451;DHT22;5273;51.290;6.918;2023-03-29T11:32:28;15.50;93.70
10451;DHT22;5273;51.290;6.918;2023-03-29T11:35:06;15.40;93.60
10451;DHT22;5273;51.290;6.918;2023-03-29T11:37:40;15.40;93.60
10451;DHT22;5273;51.290;6.918;2023-03-29T11:40:26;15.40;92.70
10451;DHT22;5273;51.290;6.918;2023-03-29T11:42:57;15.20;92.90
10451;DHT22;5273;51.290;6.918;2023-03-29T11:45:29;15.00;92.40
10451;DHT22;5273;51.290;6.918;2023-03-29T11:48:00;14.70;93.40
10451;DHT22;5273;51.290;6.918;2023-03-29T11:50:31;14.60;94.20
10451;DHT22;5273;51.290;6.918;2023-03-29T11:53:04;14.50;94.10
10451;DHT22;5273;51.290;6.918;2023-03-29T11:55:35;14.50;95.00
10451;DHT22;5273;51.290;6.918;2023-03-29T11:58:08;14.50;94.60
10451;DHT22;5273;51.290;6.918;2023-03-29T12:00:43;14.40;94.80
10451;DHT22;5273;51.290;6.918;2023-03-29T12:03:12;14.40;95.60
10451;DHT22;5273;51.290;6.918;2023-03-29T12:05:43;14.10;99.60
10451;DHT22;5273;51.290;6.918;2023-03-29T12:08:13;14.10;94.90
10451;DHT22;5273;51.290;6.918;2023-03-29T12:10:44;14.00;95.60
10451;DHT22;5273;51.290;6.918;2023-03-29T12:13:19;13.80;96.20
10451;DHT22;5273;51.290;6.918;2023-03-29T12:15:51;13.90;96.70
10451;DHT22;5273;51.290;6.918;2023-03-29T12:18:23;13.90;96.20
10451;DHT22;5273;51.290;6.918;2023-03-29T12:20:54;14.00;96.10
10451;DHT22;5273;51.290;6.918;2023-03-29T12:23:22;13.90;97.00
10451;DHT22;5273;51.290;6.918;2023-03-29T12:25:54;14.00;96.50
10451;DHT22;5273;51.290;6.918;2023-03-29T12:28:34;14.80;96.50
10451;DHT22;5273;51.290;6.918;2023-03-29T12:31:10;14.00;96.40
10451;DHT22;5273;51.290;6.918;2023-03-29T12:36:58;14.00;97.40
10451;DHT22;5273;51.290;6.918;2023-03-29T12:39:28;14.00;97.20
10451;DHT22;5273;51.290;6.918;2023-03-29T12:42:05;14.20;97.30
10451;DHT22;5273;51.290;6.918;2023-03-29T12:44:34;14.30;96.60
10451;DHT22;5273;51.290;6.918;2023-03-29T12:47:01;14.30;96.90
10451;DHT22;5273;51.290;6.918;2023-03-29T12:49:32;14.40;96.70
10451;DHT22;5273;51.290;6.918;2023-03-29T12:52:11;16.50;97.30
10451;DHT22;5273;51.290;6.918;2023-03-29T12:54:40;14.50;96.60
10451;DHT22;5273;51.290;6.918;2023-03-29T12:57:19;14.50;96.70
10451;DHT22;5273;51.290;6.918;2023-03-29T12:59:48;12.90;95.90
10451;DHT22;5273;51.290;6.918;2023-03-29T13:02:33;14.70;96.40
10451;DHT22;5273;51.290;6.918;2023-03-29T13:05:01;14.70;96.30
10451;DHT22;5273;51.290;6.918;2023-03-29T13:07:44;14.60;96.40
10451;DHT22;5273;51.290;6.918;2023-03-29T13:10:34;14.60;96.70
10451;DHT22;5273;51.290;6.918;2023-03-29T13:13:10;14.60;96.70
10451;DHT22;5273;51.290;6.918;2023-03-29T13:15:42;15.00;99.90
10451;DHT22;5273;51.290;6.918;2023-03-29T13:18:21;14.60;96.80
10451;DHT22;5273;51.290;6.918;2023-03-29T13:20:59;14.50;96.50
10451;DHT22;5273;51.290;6.918;2023-03-29T13:23:35;14.60;96.60
10451;DHT22;5273;51.290;6.918;2023-03-29T13:26:22;14.60;96.70
10451;DHT22;5273;51.290;6.918;2023-03-29T13:29:07;14.90;97.00
10451;DHT22;5273;51.290;6.918;2023-03-29T13:31:42;15.00;96.60
10451;DHT22;5273;51.290;6.918;2023-03-29T13:34:20;15.10;96.60
10451;DHT22;5273;51.290;6.918;2023-03-29T13:36:57;15.00;96.30
10451;DHT22;5273;51.290;6.918;2023-03-29T13:39:29;15.00;96.60
10451;DHT22;5273;51.290;6.918;2023-03-29T13:42:06;15.20;96.90
10451;DHT22;5273;51.290;6.918;2023-03-29T13:44:40;15.00;96.90
10451;DHT22;5273;51.290;6.918;2023-03-29T13:47:27;15.10;97.20
10451;DHT22;5273;51.290;6.918;2023-03-29T13:49:56;15.20;97.70
10451;DHT22;5273;51.290;6.918;2023-03-29T13:52:26;15.30;97.10
10451;DHT22;5273;51.290;6.918;2023-03-29T13:54:57;15.40;96.90
10451;DHT22;5273;51.290;6.918;2023-03-29T13:57:31;15.50;96.80
10451;DHT22;5273;51.290;6.918;2023-03-29T14:00:04;15.50;95.80
10451;DHT22;5273;51.290;6.918;2023-03-29T14:02:42;15.50;96.40
10451;DHT22;5273;51.290;6.918;2023-03-29T14:05:12;15.50;96.40
10451;DHT22;5273;51.290;6.918;2023-03-29T14:07:45;15.50;96.20
10451;DHT22;5273;51.290;6.918;2023-03-29T14:10:13;15.40;96.60
10451;DHT22;5273;51.290;6.918;2023-03-29T14:12:41;15.40;96.30
10451;DHT22;5273;51.290;6.918;2023-03-29T14:15:20;15.40;96.00
10451;DHT22;5273;51.290;6.918;2023-03-29T14:17:52;15.50;96.50
10451;DHT22;5273;51.290;6.918;2023-03-29T14:20:19;15.60;96.30
10451;DHT22;5273;51.290;6.918;2023-03-29T14:22:46;15.50;96.30
10451;DHT22;5273;51.290;6.918;2023-03-29T14:25:15;15.50;95.80
10451;DHT22;5273;51.290;6.918;2023-03-29T14:27:42;15.50;96.00
10451;DHT22;5273;51.290;6.918;2023-03-29T14:30:21;15.50;95.70
10451;DHT22;5273;51.290;6.918;2023-03-29T14:32:50;15.50;95.70
10451;DHT22;5273;51.290;6.918;2023-03-29T14:35:18;15.50;95.30
10451;DHT22;5273;51.290;6.918;2023-03-29T14:37:45;15.50;95.60
10451;DHT22;5273;51.290;6.918;2023-03-29T14:40:16;15.60;95.70
10451;DHT22;5273;51.290;6.918;2023-03-29T14:42:44;15.50;95.20
10451;DHT22;5273;51.290;6.918;2023-03-29T14:45:14;15.40;95.30
10451;DHT22;5273;51.290;6.918;2023-03-29T14:47:42;15.50;95.30
10451;DHT22;5273;51.290;6.918;2023-03-29T14:50:18;15.50;95.20
10451;DHT22;5273;51.290;6.918;2023-03-29T14:52:48;15.60;95.50
10451;DHT22;5273;51.290;6.918;2023-03-29T14:55:16;15.60;94.90
10451;DHT22;5273;51.290;6.918;2023-03-29T14:57:48;15.60;95.30
10451;DHT22;5273;51.290;6.918;2023-03-29T15:00:22;15.60;95.60
10451;DHT22;5273;51.290;6.918;2023-03-29T15:02:54;15.60;95.60
10451;DHT22;5273;51.290;6.918;2023-03-29T15:05:31;15.60;96.00
10451;DHT22;5273;51.290;6.918;2023-03-29T15:08:00;15.60;96.00
10451;DHT22;5273;51.290;6.918;2023-03-29T15:10:30;15.60;95.30
10451;DHT22;5273;51.290;6.918;2023-03-29T15:12:57;15.60;95.30
10451;DHT22;5273;51.290;6.918;2023-03-29T15:15:26;15.50;95.70
10451;DHT22;5273;51.290;6.918;2023-03-29T15:17:53;15.60;96.20
10451;DHT22;5273;51.290;6.918;2023-03-29T15:20:24;15.70;95.70
10451;DHT22;5273;51.290;6.918;2023-03-29T15:22:54;15.50;95.90
10451;DHT22;5273;51.290;6.918;2023-03-29T15:25:21;15.60;95.80
10451;DHT22;5273;51.290;6.918;2023-03-29T15:27:54;15.50;95.80
10451;DHT22;5273;51.290;6.918;2023-03-29T15:30:30;15.50;95.80
10451;DHT22;5273;51.290;6.918;2023-03-29T15:33:13;15.50;95.60
10451;DHT22;5273;51.290;6.918;2023-03-29T15:35:47;15.50;95.90
10451;DHT22;5273;51.290;6.918;2023-03-29T15:38:14;15.40;96.00
10451;DHT22;5273;51.290;6.918;2023-03-29T15:40:41;15.30;96.00
10451;DHT22;5273;51.290;6.918;2023-03-29T15:43:07;15.30;96.20
10451;DHT22;5273;51.290;6.918;2023-03-29T15:45:34;15.20;96.10
10451;DHT22;5273;51.290;6.918;2023-03-29T15:48:01;15.20;96.40
10451;DHT22;5273;51.290;6.918;2023-03-29T15:50:34;15.20;96.90
10451;DHT22;5273;51.290;6.918;2023-03-29T15:53:02;15.10;96.60
10451;DHT22;5273;51.290;6.918;2023-03-29T15:55:29;15.10;96.70
10451;DHT22;5273;51.290;6.918;2023-03-29T15:57:57;15.00;96.60
10451;DHT22;5273;51.290;6.918;2023-03-29T16:00:24;15.00;96.50
10451;DHT22;5273;51.290;6.918;2023-03-29T16:02:51;15.00;96.70
10451;DHT22;5273;51.290;6.918;2023-03-29T16:05:18;15.00;96.80
10451;DHT22;5273;51.290;6.918;2023-03-29T16:07:45;15.10;97.00
10451;DHT22;5273;51.290;6.918;2023-03-29T16:10:13;15.10;96.70
10451;DHT22;5273;51.290;6.918;2023-03-29T16:12:40;15.20;96.80
10451;DHT22;5273;51.290;6.918;2023-03-29T16:15:12;15.20;96.80
10451;DHT22;5273;51.290;6.918;2023-03-29T16:17:41;15.20;96.70
10451;DHT22;5273;51.290;6.918;2023-03-29T16:20:08;15.20;96.80
10451;DHT22;5273;51.290;6.918;2023-03-29T16:22:39;15.20;96.80
10451;DHT22;5273;51.290;6.918;2023-03-29T16:25:12;15.10;97.20
10451;DHT22;5273;51.290;6.918;2023-03-29T16:27:40;15.20;97.10
10451;DHT22;5273;51.290;6.918;2023-03-29T16:30:08;15.30;96.70
10451;DHT22;5273;51.290;6.918;2023-03-29T16:32:35;15.10;96.90
10451;DHT22;5273;51.290;6.918;2023-03-29T16:35:04;15.10;96.90
10451;DHT22;5273;51.290;6.918;2023-03-29T16:37:31;15.10;96.90
10451;DHT22;5273;51.290;6.918;2023-03-29T16:39:58;15.00;97.00
10451;DHT22;5273;51.290;6.918;2023-03-29T16:42:26;15.00;96.90
10451;DHT22;5273;51.290;6.918;2023-03-29T16:44:53;15.00;96.80
10451;DHT22;5273;51.290;6.918;2023-03-29T16:47:21;15.00;96.90
10451;DHT22;5273;51.290;6.918;2023-03-29T16:49:47;15.00;96.70
10451;DHT22;5273;51.290;6.918;2023-03-29T16:52:14;15.10;97.00
10451;DHT22;5273;51.290;6.918;2023-03-29T16:54:41;15.00;96.90
10451;DHT22;5273;51.290;6.918;2023-03-29T16:57:08;15.00;97.10
10451;DHT22;5273;51.290;6.918;2023-03-29T16:59:37;15.00;97.20
10451;DHT22;5273;51.290;6.918;2023-03-29T17:02:06;15.10;97.40
10451;DHT22;5273;51.290;6.918;2023-03-29T17:04:32;15.00;97.40
10451;DHT22;5273;51.290;6.918;2023-03-29T17:07:00;14.30;97.10
10451;DHT22;5273;51.290;6.918;2023-03-29T17:09:27;14.90;97.60
10451;DHT22;5273;51.290;6.918;2023-03-29T17:11:54;14.90;97.50
10451;DHT22;5273;51.290;6.918;2023-03-29T17:14:20;14.90;97.50
10451;DHT22;5273;51.290;6.918;2023-03-29T17:16:48;14.90;97.70
10451;DHT22;5273;51.290;6.918;2023-03-29T17:19:15;14.90;97.70
10451;DHT22;5273;51.290;6.918;2023-03-29T17:21:42;14.90;97.70
10451;DHT22;5273;51.290;6.918;2023-03-29T17:24:09;14.90;97.80
10451;DHT22;5273;51.290;6.918;2023-03-29T17:26:35;14.90;97.80
10451;DHT22;5273;51.290;6.918;2023-03-29T17:29:03;15.00;97.70
10451;DHT22;5273;51.290;6.918;2023-03-29T17:31:30;14.90;97.30
10451;DHT22;5273;51.290;6.918;2023-03-29T17:33:58;14.90;97.50
10451;DHT22;5273;51.290;6.918;2023-03-29T17:36:25;14.90;97.60
10451;DHT22;5273;51.290;6.918;2023-03-29T17:38:53;14.90;97.40
10451;DHT22;5273;51.290;6.918;2023-03-29T17:41:20;14.80;97.30
10451;DHT22;5273;51.290;6.918;2023-03-29T17:43:47;14.80;97.30
10451;DHT22;5273;51.290;6.918;2023-03-29T17:46:15;14.80;97.50
10451;DHT22;5273;51.290;6.918;2023-03-29T17:48:47;15.40;97.70
10451;DHT22;5273;51.290;6.918;2023-03-29T17:51:16;14.80;97.50
10451;DHT22;5273;51.290;6.918;2023-03-29T17:53:44;14.70;97.60
10451;DHT22;5273;51.290;6.918;2023-03-29T17:56:11;14.80;97.70
10451;DHT22;5273;51.290;6.918;2023-03-29T17:58:38;14.70;97.70
10451;DHT22;5273;51.290;6.918;2023-03-29T18:01:06;14.70;97.80
10451;DHT22;5273;51.290;6.918;2023-03-29T18:03:33;14.70;97.90
10451;DHT22;5273;51.290;6.918;2023-03-29T18:06:00;14.60;99.90
10451;DHT22;5273;51.290;6.918;2023-03-29T18:08:28;14.60;98.20
10451;DHT22;5273;51.290;6.918;2023-03-29T18:10:55;14.50;98.80
10451;DHT22;5273;51.290;6.918;2023-03-29T18:13:29;14.50;99.90
10451;DHT22;5273;51.290;6.918;2023-03-29T18:15:56;14.50;98.90
10451;DHT22;5273;51.290;6.918;2023-03-29T18:18:23;14.40;99.10
10451;DHT22;5273;51.290;6.918;2023-03-29T18:20:50;14.40;99.50
10451;DHT22;5273;51.290;6.918;2023-03-29T18:23:17;14.50;99.80
10451;DHT22;5273;51.290;6.918;2023-03-29T18:25:45;14.50;99.90
10451;DHT22;5273;51.290;6.918;2023-03-29T18:28:12;14.40;99.90
10451;DHT22;5273;51.290;6.918;2023-03-29T18:30:38;14.40;99.90
10451;DHT22;5273;51.290;6.918;2023-03-29T18:33:05;14.40;99.90
10451;DHT22;5273;51.290;6.918;2023-03-29T18:35:32;14.40;99.90
10451;DHT22;5273;51.290;6.918;2023-03-29T18:37:59;14.30;99.90
10451;DHT22;5273;51.290;6.918;2023-03-29T18:40:27;14.30;99.90
10451;DHT22;5273;51.290;6.918;2023-03-29T18:42:56;14.30;99.90
10451;DHT22;5273;51.290;6.918;2023-03-29T18:45:23;14.30;99.90
10451;DHT22;5273;51.290;6.918;2023-03-29T18:47:49;14.30;99.90
10451;DHT22;5273;51.290;6.918;2023-03-29T18:50:16;14.30;99.90
10451;DHT22;5273;51.290;6.918;2023-03-29T18:52:43;15.30;99.90
10451;DHT22;5273;51.290;6.918;2023-03-29T18:55:10;14.30;99.90
10451;DHT22;5273;51.290;6.918;2023-03-29T18:57:37;14.30;99.90
10451;DHT22;5273;51.290;6.918;2023-03-29T19:00:06;14.30;99.90
10451;DHT22;5273;51.290;6.918;2023-03-29T19:02:37;14.30;99.90
10451;DHT22;5273;51.290;6.918;2023-03-29T19:05:04;14.30;99.90
10451;DHT22;5273;51.290;6.918;2023-03-29T19:07:31;14.30;99.90
10451;DHT22;5273;51.290;6.918;2023-03-29T19:09:58;14.20;99.90
10451;DHT22;5273;51.290;6.918;2023-03-29T19:12:24;14.20;99.90
10451;DHT22;5273;51.290;6.918;2023-03-29T19:14:51;14.20;99.90
10451;DHT22;5273;51.290;6.918;2023-03-29T19:17:20;14.20;99.90
10451;DHT22;5273;51.290;6.918;2023-03-29T19:19:47;14.10;99.90
10451;DHT22;5273;51.290;6.918;2023-03-29T19:22:14;14.10;99.90
10451;DHT22;5273;51.290;6.918;2023-03-29T19:24:41;14.40;99.90
10451;DHT22;5273;51.290;6.918;2023-03-29T19:27:08;14.10;99.90
10451;DHT22;5273;51.290;6.918;2023-03-29T19:29:34;14.10;99.90
10451;DHT22;5273;51.290;6.918;2023-03-29T19:32:02;14.10;99.90
10451;DHT22;5273;51.290;6.918;2023-03-29T19:34:32;14.00;99.90
10451;DHT22;5273;51.290;6.918;2023-03-29T19:36:59;14.00;99.90
10451;DHT22;5273;51.290;6.918;2023-03-29T19:39:26;14.00;99.90
10451;DHT22;5273;51.290;6.918;2023-03-29T19:41:54;14.00;99.90
10451;DHT22;5273;51.290;6.918;2023-03-29T19:44:21;14.00;99.90
10451;DHT22;5273;51.290;6.918;2023-03-29T19:46:49;14.00;99.90
10451;DHT22;5273;51.290;6.918;2023-03-29T19:49:16;13.90;99.90
10451;DHT22;5273;51.290;6.918;2023-03-29T19:51:44;13.90;99.90
10451;DHT22;5273;51.290;6.918;2023-03-29T19:54:12;14.20;99.90
10451;DHT22;5273;51.290;6.918;2023-03-29T19:56:39;12.20;99.90
10451;DHT22;5273;51.290;6.918;2023-03-29T19:59:07;14.00;99.90
10451;DHT22;5273;51.290;6.918;2023-03-29T20:01:35;13.90;99.90
10451;DHT22;5273;51.290;6.918;2023-03-29T20:04:03;13.90;99.90
10451;DHT22;5273;51.290;6.918;2023-03-29T20:06:30;13.90;99.90
10451;DHT22;5273;51.290;6.918;2023-03-29T20:08:58;13.80;99.90
10451;DHT22;5273;51.290;6.918;2023-03-29T20:11:25;13.80;99.90
10451;DHT22;5273;51.290;6.918;2023-03-29T20:13:53;13.80;99.90
10451;DHT22;5273;51.290;6.918;2023-03-29T20:16:20;13.70;99.90
10451;DHT22;5273;51.290;6.918;2023-03-29T20:18:48;13.70;99.90
10451;DHT22;5273;51.290;6.918;2023-03-29T20:21:18;13.70;99.90
10451;DHT22;5273;51.290;6.918;2023-03-29T20:23:45;13.20;99.90
10451;DHT22;5273;51.290;6.918;2023-03-29T20:26:13;13.70;99.90
10451;DHT22;5273;51.290;6.918;2023-03-29T20:28:40;13.70;99.90
10451;DHT22;5273;51.290;6.918;2023-03-29T20:31:07;13.70;99.90
10451;DHT22;5273;51.290;6.918;2023-03-29T20:33:35;13.70;99.90
10451;DHT22;5273;51.290;6.918;2023-03-29T20:36:03;13.60;99.90
10451;DHT22;5273;51.290;6.918;2023-03-29T20:38:30;13.60;99.90
10451;DHT22;5273;51.290;6.918;2023-03-29T20:40:57;13.60;99.90
10451;DHT22;5273;51.290;6.918;2023-03-29T20:43:26;13.60;99.90
10451;DHT22;5273;51.290;6.918;2023-03-29T20:45:52;13.50;99.90
10451;DHT22;5273;51.290;6.918;2023-03-29T20:48:19;13.50;99.90
10451;DHT22;5273;51.290;6.918;2023-03-29T20:50:47;13.50;99.90
10451;DHT22;5273;51.290;6.918;2023-03-29T20:53:14;13.50;99.90
10451;DHT22;5273;51.290;6.918;2023-03-29T20:55:42;13.40;99.90
10451;DHT22;5273;51.290;6.918;2023-03-29T20:58:09;13.50;99.90
10451;DHT22;5273;51.290;6.918;2023-03-29T21:00:37;13.40;99.90
10451;DHT22;5273;51.290;6.918;2023-03-29T21:03:04;13.40;99.90
10451;DHT22;5273;51.290;6.918;2023-03-29T21:05:32;13.30;99.90
10451;DHT22;5273;51.290;6.918;2023-03-29T21:07:59;13.30;99.90
10451;DHT22;5273;51.290;6.918;2023-03-29T21:10:27;13.30;99.90
10451;DHT22;5273;51.290;6.918;2023-03-29T21:12:54;13.30;99.90
10451;DHT22;5273;51.290;6.918;2023-03-29T21:15:25;13.50;99.90
10451;DHT22;5273;51.290;6.918;2023-03-29T21:17:54;13.30;99.90
10451;DHT22;5273;51.290;6.918;2023-03-29T21:20:21;13.30;99.90
10451;DHT22;5273;51.290;6.918;2023-03-29T21:22:48;13.30;99.90
10451;DHT22;5273;51.290;6.918;2023-03-29T21:25:15;13.30;99.90
10451;DHT22;5273;51.290;6.918;2023-03-29T21:27:42;13.30;99.90
10451;DHT22;5273;51.290;6.918;2023-03-29T21:30:10;13.30;99.90
10451;DHT22;5273;51.290;6.918;2023-03-29T21:32:36;13.30;99.90